Time;durP1;ratioP1;P1;durP2;ratioP2;P2;SDS_P1;SDS_P2;PMS_P1;PMS_P2;Temp;Humidity;BMP_temperature;BMP_pressure;BME280_temperature;BME280_humidity;BME280_pressure;Samples;Min_cycle;Max_cycle;Signal;HPM_P1;HPM_P2
2022/08/02 00:01:28;;;;;;;4.40;2.33;;;13.10;99.90;;;;;;5071077;28;20043;-62
2022/08/02 00:03:54;;;;;;;3.72;1.77;;;13.20;99.90;;;;;;5088947;28;20118;-66
2022/08/02 00:06:19;;;;;;;7.43;2.83;;;13.20;99.90;;;;;;5070465;28;20511;-65
2022/08/02 00:08:45;;;;;;;6.30;2.22;;;13.20;99.90;;;;;;5070460;28;20071;-64
2022/08/02 00:11:11;;;;;;;7.55;2.63;;;13.20;99.90;;;;;;5071057;28;20059;-64
2022/08/02 00:13:36;;;;;;;8.13;2.38;;;13.20;99.90;;;;;;5069974;28;20036;-64
2022/08/02 00:16:02;;;;;;;6.53;2.60;;;13.20;99.90;;;;;;5070495;28;20110;-64
2022/08/02 00:18:28;;;;;;;8.77;2.20;;;13.20;99.90;;;;;;5071393;28;20440;-62
2022/08/02 00:20:54;;;;;;;5.15;2.70;;;13.20;99.90;;;;;;5073564;28;20036;-64
2022/08/02 00:23:19;;;;;;;7.07;2.08;;;13.20;99.90;;;;;;5093611;28;20044;-64
2022/08/02 00:25:45;;;;;;;7.40;2.30;;;13.20;99.90;;;;;;5073461;28;20123;-64
2022/08/02 00:28:11;;;;;;;6.57;2.13;;;13.20;99.90;;;;;;5092261;28;20153;-64
2022/08/02 00:30:37;;;;;;;5.15;2.28;;;13.20;99.90;;;;;;5075025;28;20048;-64
2022/08/02 00:33:04;;;;;;;6.03;2.60;;;13.20;99.90;;;;;;5091599;28;20031;-63
2022/08/02 00:35:31;;;;;;;6.10;2.28;;;13.20;99.90;;;;;;5092817;28;20036;-64
2022/08/02 00:37:57;;;;;;;8.50;2.97;;;13.20;99.90;;;;;;5075274;28;20953;-64
2022/08/02 00:40:23;;;;;;;7.53;2.28;;;13.10;99.90;;;;;;5073249;28;20074;-63
2022/08/02 00:43:05;;;;;;;5.70;2.00;;;13.10;99.90;;;;;;5073227;28;20047;-63
2022/08/02 00:45:33;;;;;;;8.35;2.17;;;13.10;99.90;;;;;;5073244;28;20043;-63
2022/08/02 00:47:58;;;;;;;5.85;2.30;;;13.10;99.90;;;;;;5091407;28;20062;-65
2022/08/02 00:50:25;;;;;;;4.82;2.00;;;13.10;99.90;;;;;;5071210;28;20087;-63
2022/08/02 00:52:50;;;;;;;5.82;2.28;;;13.10;99.90;;;;;;5090663;28;20114;-62
2022/08/02 00:55:16;;;;;;;6.05;2.25;;;13.00;99.90;;;;;;5057228;28;20593;-64
2022/08/02 00:57:41;;;;;;;9.50;3.00;;;13.00;99.90;;;;;;5074328;28;20499;-64
2022/08/02 01:00:08;;;;;;;8.57;2.33;;;13.10;99.90;;;;;;5073474;28;20046;-64
2022/08/02 01:02:34;;;;;;;7.38;2.60;;;13.00;99.90;;;;;;5073326;28;20032;-63
2022/08/02 01:04:59;;;;;;;5.88;1.90;;;13.00;99.90;;;;;;5074700;28;20101;-62
2022/08/02 01:07:26;;;;;;;6.22;2.33;;;13.00;99.90;;;;;;5074508;28;20039;-63
2022/08/02 01:09:51;;;;;;;8.98;2.40;;;13.00;99.90;;;;;;5092869;28;20039;-63
2022/08/02 01:12:17;;;;;;;7.80;2.38;;;13.00;99.90;;;;;;5055923;28;20044;-63
2022/08/02 01:14:49;;;;;;;7.97;2.88;;;13.00;99.90;;;;;;5073646;28;20123;-63
2022/08/02 01:17:52;;;;;;;4.75;2.10;;;13.00;99.90;;;;;;5057579;28;20039;-63
2022/08/02 01:20:27;;;;;;;6.65;2.28;;;12.90;99.90;;;;;;5072428;28;20052;-63
2022/08/02 01:23:20;;;;;;;7.35;2.25;;;12.90;99.90;;;;;;5071682;28;20118;-64
2022/08/02 01:25:48;;;;;;;;;;;12.90;99.90;;;;;;5072348;28;20489;-65
2022/08/02 01:28:34;;;;;;;8.95;2.40;;;12.90;99.90;;;;;;5091889;28;19927;-65
2022/08/02 01:31:28;;;;;;;8.55;2.58;;;12.80;99.90;;;;;;5073821;28;20433;-63
2022/08/02 01:34:29;;;;;;;6.07;2.05;;;12.80;99.90;;;;;;5078283;28;20040;-63
2022/08/02 01:37:20;;;;;;;6.75;2.05;;;12.80;99.90;;;;;;5073439;28;20040;-64
2022/08/02 01:39:50;;;;;;;6.85;2.50;;;12.80;99.90;;;;;;5073507;28;20052;-66
2022/08/02 01:42:18;;;;;;;5.53;2.00;;;12.80;99.90;;;;;;5055952;28;20036;-64
2022/08/02 01:44:45;;;;;;;8.82;2.55;;;12.80;99.90;;;;;;5089315;28;20093;-64
2022/08/02 01:47:22;;;;;;;7.15;2.28;;;12.70;99.90;;;;;;5072865;28;20082;-63
2022/08/02 01:49:51;;;;;;;4.95;2.20;;;12.70;99.90;;;;;;5090008;28;20036;-66
2022/08/02 01:52:23;;;;;;;6.55;2.25;;;12.70;99.90;;;;;;5071058;28;20045;-64
2022/08/02 01:55:13;;;;;;;3.80;1.92;;;12.70;99.90;;;;;;5071046;28;20083;-63
2022/08/02 01:57:44;;;;;;;6.30;2.20;;;12.70;99.90;;;;;;5072645;28;20090;-65
2022/08/02 02:00:11;;;;;;;6.95;2.55;;;12.60;99.90;;;;;;5089908;28;20047;-63
2022/08/02 02:02:41;;;;;;;7.03;2.40;;;12.60;99.90;;;;;;5073664;28;20093;-63
2022/08/02 02:05:12;;;;;;;7.07;2.10;;;12.60;99.90;;;;;;5072294;28;20032;-63
2022/08/02 02:07:40;;;;;;;8.05;2.70;;;12.60;99.90;;;;;;5055577;28;20498;-65
2022/08/02 02:10:10;;;;;;;5.47;2.85;;;12.60;99.90;;;;;;5072556;28;20064;-64
2022/08/02 02:12:38;;;;;;;7.88;2.75;;;12.60;99.90;;;;;;5091344;28;20044;-65
2022/08/02 02:15:06;;;;;;;7.07;2.47;;;12.60;99.90;;;;;;5072511;28;20584;-63
2022/08/02 02:17:33;;;;;;;10.40;2.88;;;12.60;99.90;;;;;;5072195;28;20044;-63
2022/08/02 02:20:01;;;;;;;6.47;2.60;;;12.60;99.90;;;;;;5095631;28;20032;-65
2022/08/02 02:22:27;;;;;;;7.70;2.97;;;12.60;99.90;;;;;;5093766;28;20116;-63
2022/08/02 02:24:54;;;;;;;6.95;2.55;;;12.60;99.90;;;;;;5090347;28;20521;-63
2022/08/02 02:27:23;;;;;;;9.13;2.70;;;12.60;99.90;;;;;;5071159;28;20406;-64
2022/08/02 02:29:50;;;;;;;8.15;3.03;;;12.60;99.90;;;;;;5072230;28;20051;-65
2022/08/02 02:32:17;;;;;;;4.40;2.50;;;12.60;99.90;;;;;;5089749;28;20036;-65
2022/08/02 02:34:45;;;;;;;7.72;2.80;;;12.60;99.90;;;;;;5070361;28;20044;-64
2022/08/02 02:37:20;;;;;;;13.07;2.78;;;12.60;99.90;;;;;;5088541;28;20118;-63
2022/08/02 02:39:49;;;;;;;7.85;2.95;;;12.60;99.90;;;;;;5089955;28;20457;-64
2022/08/02 02:42:18;;;;;;;6.63;3.20;;;12.60;99.90;;;;;;5072906;28;20047;-62
2022/08/02 02:44:46;;;;;;;9.73;3.60;;;12.60;99.90;;;;;;5072485;28;20051;-66
2022/08/02 02:47:14;;;;;;;14.38;3.45;;;12.60;99.90;;;;;;5087856;28;20066;-66
2022/08/02 02:49:41;;;;;;;8.85;3.90;;;12.60;99.90;;;;;;5092735;28;20145;-64
2022/08/02 02:52:08;;;;;;;10.23;3.63;;;12.60;99.90;;;;;;5056053;28;20073;-65
2022/08/02 02:54:36;;;;;;;10.48;3.90;;;12.60;99.90;;;;;;5088158;28;20040;-64
2022/08/02 02:57:04;;;;;;;8.63;4.22;;;12.60;99.90;;;;;;5088674;28;20424;-63
2022/08/02 02:59:31;;;;;;;10.07;3.67;;;12.60;99.90;;;;;;5053355;28;20067;-63
2022/08/02 03:01:57;;;;;;;8.93;3.80;;;12.60;99.90;;;;;;5089492;28;20098;-63
2022/08/02 03:04:24;;;;;;;8.65;3.40;;;12.60;99.90;;;;;;5072847;28;20044;-63
2022/08/02 03:06:49;;;;;;;8.25;3.85;;;12.60;99.90;;;;;;5071745;28;20540;-64
2022/08/02 03:09:15;;;;;;;6.00;3.45;;;12.60;99.90;;;;;;5069148;28;20044;-63
2022/08/02 03:11:41;;;;;;;6.90;4.03;;;12.60;99.90;;;;;;5071781;28;20036;-64
2022/08/02 03:14:11;;;;;;;7.07;3.90;;;12.60;99.90;;;;;;5072305;28;20056;-63
2022/08/02 03:16:47;;;;;;;9.70;4.00;;;12.60;99.90;;;;;;5089667;28;20470;-63
2022/08/02 03:19:14;;;;;;;7.07;3.78;;;12.50;99.90;;;;;;5072017;28;20036;-64
2022/08/02 03:21:42;;;;;;;9.75;4.10;;;12.50;99.90;;;;;;5072515;28;20072;-63
2022/08/02 03:24:07;;;;;;;6.45;4.10;;;12.50;99.90;;;;;;5089372;28;20067;-65
2022/08/02 03:26:34;;;;;;;11.65;3.83;;;12.50;99.90;;;;;;5070613;28;20071;-65
2022/08/02 03:29:00;;;;;;;6.68;3.90;;;12.50;99.90;;;;;;5088800;28;20585;-63
2022/08/02 03:31:25;;;;;;;6.57;3.78;;;12.50;99.90;;;;;;5081789;28;20119;-64
2022/08/02 03:33:52;;;;;;;6.82;3.85;;;12.50;99.90;;;;;;5071485;28;20035;-64
2022/08/02 03:36:21;;;;;;;9.02;3.88;;;12.50;99.90;;;;;;5071114;28;20043;-65
2022/08/02 03:38:48;;;;;;;7.78;3.88;;;12.50;99.90;;;;;;5072419;28;20044;-64
2022/08/02 03:41:16;;;;;;;7.55;4.10;;;12.50;99.90;;;;;;5070473;28;20044;-64
2022/08/02 03:43:43;;;;;;;8.88;3.90;;;12.50;99.90;;;;;;5072586;28;20097;-64
2022/08/02 03:46:11;;;;;;;11.65;3.83;;;12.50;99.90;;;;;;5070970;28;20521;-64
2022/08/02 03:48:37;;;;;;;9.10;4.10;;;12.40;99.90;;;;;;5070794;28;20405;-62
2022/08/02 03:51:03;;;;;;;8.77;3.50;;;12.40;99.90;;;;;;5087145;28;20043;-64
2022/08/02 03:53:30;;;;;;;5.88;3.53;;;12.50;99.90;;;;;;5093481;28;20040;-65
2022/08/02 03:55:56;;;;;;;5.30;3.38;;;12.50;99.90;;;;;;5074839;28;20051;-64
2022/08/02 03:58:23;;;;;;;7.82;4.03;;;12.50;99.90;;;;;;5075886;28;20089;-64
2022/08/02 04:00:52;;;;;;;7.32;3.58;;;12.50;99.90;;;;;;5093436;28;20085;-64
2022/08/02 04:03:18;;;;;;;7.72;3.60;;;12.50;99.90;;;;;;5074352;28;20051;-64
2022/08/02 04:05:44;;;;;;;5.50;3.03;;;12.50;99.90;;;;;;5074139;28;20048;-62
2022/08/02 04:08:09;;;;;;;7.00;3.42;;;12.50;99.90;;;;;;5093845;28;20054;-61
2022/08/02 04:11:29;;;;;;;11.52;3.83;;;12.50;99.90;;;;;;5092977;28;20035;-64
2022/08/02 04:13:23;;;;;;;6.85;3.28;;;12.50;99.90;;;;;;5074420;28;20047;-63
2022/08/02 04:15:52;;;;;;;10.02;3.63;;;12.60;99.90;;;;;;5092155;28;20114;-63
2022/08/02 04:18:21;;;;;;;10.57;3.90;;;12.60;99.90;;;;;;5092016;28;20150;-64
2022/08/02 04:20:48;;;;;;;6.55;3.30;;;12.70;99.90;;;;;;5092966;28;20047;-62
2022/08/02 04:23:16;;;;;;;6.30;2.97;;;12.60;99.90;;;;;;5091192;28;20058;-63
2022/08/02 04:25:41;;;;;;;7.15;3.50;;;12.70;99.90;;;;;;5074734;28;20830;-64
2022/08/02 04:28:08;;;;;;;6.22;3.70;;;12.70;99.90;;;;;;5091817;28;20060;-64
2022/08/02 04:30:36;;;;;;;8.15;3.30;;;12.80;99.90;;;;;;5074028;28;20079;-64
2022/08/02 04:33:02;;;;;;;6.22;3.10;;;12.80;99.90;;;;;;5072849;28;20126;-63
2022/08/02 04:35:28;;;;;;;7.05;3.05;;;12.90;99.90;;;;;;5074288;28;20047;-62
2022/08/02 04:37:54;;;;;;;8.07;3.08;;;12.90;99.90;;;;;;5092439;28;20032;-65
2022/08/02 04:40:20;;;;;;;8.55;3.25;;;12.90;99.90;;;;;;5074240;28;20096;-63
2022/08/02 04:42:45;;;;;;;8.55;3.13;;;13.00;99.90;;;;;;5073830;28;20044;-64
2022/08/02 04:45:11;;;;;;;6.43;3.08;;;13.00;99.90;;;;;;5090257;28;20036;-65
2022/08/02 04:47:38;;;;;;;8.43;3.50;;;13.10;99.90;;;;;;5072776;28;20036;-64
2022/08/02 04:50:04;;;;;;;9.77;3.85;;;13.20;99.90;;;;;;5075142;28;20052;-63
2022/08/02 04:52:29;;;;;;;8.75;3.70;;;13.20;99.90;;;;;;5075250;28;20470;-65
2022/08/02 04:54:55;;;;;;;7.65;3.50;;;13.20;99.90;;;;;;5073847;28;20040;-63
2022/08/02 05:00:07;;;;;;;8.10;4.05;;;13.30;99.90;;;;;;5073783;28;20052;-64
2022/08/02 05:02:34;;;;;;;8.68;3.30;;;13.40;99.90;;;;;;5074905;28;20514;-64
2022/08/02 05:04:59;;;;;;;7.57;3.10;;;13.40;99.90;;;;;;5074190;28;20040;-64
2022/08/02 05:07:25;;;;;;;9.10;3.30;;;13.50;99.90;;;;;;5071987;28;20083;-65
2022/08/02 05:09:51;;;;;;;7.47;3.28;;;13.50;99.90;;;;;;5077614;28;20036;-65
2022/08/02 05:12:16;;;;;;;8.43;3.13;;;13.60;99.90;;;;;;5095054;28;20027;-64
2022/08/02 05:14:42;;;;;;;6.93;3.20;;;13.70;99.90;;;;;;5094969;28;20500;-64
2022/08/02 05:17:07;;;;;;;9.27;3.10;;;13.80;99.90;;;;;;5080359;28;20043;-64
2022/08/02 05:19:33;;;;;;;6.18;2.67;;;13.90;99.90;;;;;;5089458;28;20046;-65
2022/08/02 05:21:58;;;;;;;5.28;2.90;;;13.90;99.90;;;;;;5058154;28;20051;-65
2022/08/02 05:24:24;;;;;;;9.02;3.30;;;14.00;99.90;;;;;;5092691;28;20048;-64
2022/08/02 05:26:50;;;;;;;7.78;3.08;;;14.10;99.90;;;;;;5093959;28;20035;-64
2022/08/02 05:29:16;;;;;;;7.82;3.35;;;14.30;99.90;;;;;;5101904;28;20406;-64
2022/08/02 05:31:42;;;;;;;8.38;3.58;;;14.40;99.90;;;;;;5090870;28;20058;-64
2022/08/02 05:34:07;;;;;;;5.25;3.35;;;14.40;99.90;;;;;;5074290;28;20044;-63
2022/08/02 05:36:33;;;;;;;7.85;3.30;;;14.50;99.90;;;;;;5092536;28;20036;-64
2022/08/02 05:38:58;;;;;;;6.28;3.20;;;14.60;99.90;;;;;;5090000;28;20043;-64
2022/08/02 05:41:24;;;;;;;7.93;3.10;;;14.60;99.90;;;;;;5088134;28;20564;-64
2022/08/02 05:43:50;;;;;;;9.27;3.58;;;14.70;99.90;;;;;;5092192;28;20044;-63
2022/08/02 05:46:15;;;;;;;8.07;3.33;;;14.80;99.90;;;;;;5056713;28;20080;-65
2022/08/02 05:48:43;;;;;;;6.55;3.20;;;14.90;99.90;;;;;;5071186;28;20036;-66
2022/08/02 05:51:19;;;;;;;5.50;3.20;;;15.00;99.90;;;;;;5093075;28;20382;-66
2022/08/02 05:53:51;;;;;;;6.97;3.00;;;15.20;99.90;;;;;;5053649;28;20063;-65
2022/08/02 05:56:33;;;;;;;9.53;3.60;;;15.30;99.90;;;;;;5073177;28;20046;-64
2022/08/02 05:59:33;;;;;;;6.00;3.27;;;15.50;99.90;;;;;;5073400;28;20040;-63
2022/08/02 06:02:03;;;;;;;6.60;3.85;;;15.60;99.90;;;;;;5056350;28;20517;-65
2022/08/02 06:05:06;;;;;;;9.23;3.22;;;15.70;99.90;;;;;;5089990;28;20051;-64
2022/08/02 06:07:35;;;;;;;10.98;3.45;;;15.90;99.90;;;;;;4973154;28;20054;-65
2022/08/02 06:10:03;;;;;;;6.95;3.78;;;16.00;99.90;;;;;;4971734;28;20046;-66
2022/08/02 06:12:32;;;;;;;10.05;3.40;;;16.20;99.90;;;;;;4971461;28;20059;-67
2022/08/02 06:14:58;;;;;;;6.80;3.55;;;16.40;99.90;;;;;;4973028;28;20031;-66
2022/08/02 06:17:25;;;;;;;5.82;3.42;;;16.50;99.90;;;;;;4973550;28;20153;-65
2022/08/02 06:19:56;;;;;;;7.88;3.10;;;16.60;99.90;;;;;;4973757;28;20042;-64
2022/08/02 06:22:26;;;;;;;8.73;3.08;;;16.70;99.90;;;;;;4973025;28;20050;-65
2022/08/02 06:24:53;;;;;;;7.90;3.45;;;16.80;99.90;;;;;;4989735;28;20057;-65
2022/08/02 06:27:20;;;;;;;7.40;3.08;;;17.00;99.90;;;;;;4971012;28;20042;-66
2022/08/02 06:29:47;;;;;;;9.38;3.60;;;17.10;99.90;;;;;;4954123;28;20097;-63
2022/08/02 06:32:17;;;;;;;8.50;3.47;;;17.20;99.90;;;;;;4969586;28;20047;-65
2022/08/02 06:34:43;;;;;;;8.90;3.15;;;17.20;99.90;;;;;;4954079;28;20049;-65
2022/08/02 06:37:23;;;;;;;7.30;2.90;;;17.20;99.90;;;;;;4969966;28;20050;-68
2022/08/02 06:39:57;;;;;;;5.38;2.95;;;17.30;99.90;;;;;;4970133;28;20093;-64
2022/08/02 06:42:47;;;;;;;6.22;3.10;;;17.40;99.90;;;;;;4969579;28;20049;-64
2022/08/02 06:45:13;;;;;;;6.78;2.80;;;17.40;99.90;;;;;;5049642;28;20053;-65
2022/08/02 06:47:39;;;;;;;6.05;2.47;;;17.60;99.90;;;;;;5049251;28;20041;-66
2022/08/02 06:50:05;;;;;;;7.75;2.90;;;17.60;99.90;;;;;;5049527;28;20064;-65
2022/08/02 06:52:30;;;;;;;6.90;2.65;;;17.80;99.90;;;;;;5049682;28;20135;-67
2022/08/02 06:54:58;;;;;;;6.15;2.65;;;17.90;99.90;;;;;;5049919;28;20033;-65
2022/08/02 06:57:24;;;;;;;7.88;3.15;;;18.10;99.90;;;;;;5049470;28;20044;-63
2022/08/02 06:59:50;;;;;;;7.28;3.17;;;18.20;99.90;;;;;;5050995;28;20041;-65
2022/08/02 07:02:15;;;;;;;8.55;2.80;;;18.40;99.90;;;;;;5049562;28;20449;-66
2022/08/02 07:04:41;;;;;;;7.18;2.55;;;18.50;99.90;;;;;;5049514;28;20041;-65
2022/08/02 07:07:06;;;;;;;5.70;2.38;;;18.70;99.90;;;;;;5050876;28;20118;-64
2022/08/02 07:09:32;;;;;;;4.47;2.30;;;18.90;99.90;;;;;;5049016;28;20455;-66
2022/08/02 07:11:58;;;;;;;4.75;2.20;;;19.10;99.90;;;;;;5049441;28;20033;-65
2022/08/02 07:14:23;;;;;;;6.53;2.20;;;19.20;99.90;;;;;;5050062;28;20487;-63
2022/08/02 07:16:49;;;;;;;4.45;2.45;;;19.30;99.90;;;;;;5050591;28;20073;-65
2022/08/02 07:19:14;;;;;;;8.25;2.08;;;19.30;99.90;;;;;;5049326;28;20041;-64
2022/08/02 07:21:40;;;;;;;9.30;2.22;;;19.30;99.90;;;;;;5049133;28;20087;-64
2022/08/02 07:24:06;;;;;;;4.82;1.90;;;19.20;99.90;;;;;;5049103;28;20044;-65
2022/08/02 07:26:31;;;;;;;6.97;2.53;;;19.30;99.90;;;;;;5049938;28;20495;-65
2022/08/02 07:28:57;;;;;;;5.63;2.10;;;19.40;99.90;;;;;;5060117;28;20048;-65
2022/08/02 07:31:23;;;;;;;4.18;2.00;;;19.50;99.90;;;;;;5070512;28;20037;-63
2022/08/02 07:33:48;;;;;;;6.15;2.28;;;19.70;99.90;;;;;;5069084;28;20032;-63
2022/08/02 07:36:14;;;;;;;5.53;1.77;;;19.90;99.90;;;;;;5063034;28;20044;-64
2022/08/02 07:38:40;;;;;;;7.50;2.00;;;20.10;99.90;;;;;;5068772;28;20055;-65
2022/08/02 07:41:05;;;;;;;5.45;1.70;;;20.20;99.90;;;;;;5070295;28;21535;-65
2022/08/02 07:43:31;;;;;;;5.80;2.10;;;20.40;99.90;;;;;;5062431;28;20112;-64
2022/08/02 07:45:56;;;;;;;4.28;2.05;;;20.50;99.90;;;;;;5059838;28;20095;-65
2022/08/02 07:48:22;;;;;;;3.95;2.08;;;20.60;99.90;;;;;;5070144;28;20040;-64
2022/08/02 07:50:48;;;;;;;3.65;1.80;;;20.70;99.90;;;;;;5061212;28;20045;-65
2022/08/02 07:53:13;;;;;;;7.85;2.00;;;20.70;99.90;;;;;;5068942;28;20067;-66
2022/08/02 07:55:39;;;;;;;5.15;1.95;;;20.80;99.90;;;;;;5068646;28;20071;-63
2022/08/02 07:58:05;;;;;;;5.65;2.42;;;20.90;99.90;;;;;;5069949;28;20039;-65
2022/08/02 08:00:31;;;;;;;5.97;1.65;;;21.10;99.90;;;;;;5066549;28;20071;-66
2022/08/02 08:02:56;;;;;;;5.28;1.73;;;21.20;99.90;;;;;;5064072;28;20036;-65
2022/08/02 08:05:22;;;;;;;4.70;1.60;;;21.30;99.90;;;;;;5068599;28;20044;-65
2022/08/02 08:07:48;;;;;;;8.05;1.70;;;21.40;99.90;;;;;;5069581;28;20043;-63
2022/08/02 08:10:13;;;;;;;5.63;1.70;;;21.50;99.90;;;;;;5067798;28;20135;-65
2022/08/02 08:12:39;;;;;;;5.03;1.50;;;21.70;99.90;;;;;;5068387;28;20386;-64
2022/08/02 08:15:05;;;;;;;4.20;1.60;;;21.90;99.90;;;;;;5060126;28;20050;-65
2022/08/02 08:17:31;;;;;;;3.83;1.50;;;22.00;99.90;;;;;;5068362;28;20116;-67
2022/08/02 08:19:57;;;;;;;5.15;1.40;;;22.10;99.90;;;;;;5058225;28;20125;-66
2022/08/02 08:22:23;;;;;;;5.20;1.90;;;22.20;99.90;;;;;;5069743;28;20032;-66
2022/08/02 08:24:49;;;;;;;3.08;1.40;;;22.30;99.90;;;;;;5068118;28;20047;-64
2022/08/02 08:27:16;;;;;;;3.67;1.60;;;22.30;99.90;;;;;;5065957;28;20119;-66
2022/08/02 08:29:43;;;;;;;5.60;1.52;;;22.30;99.90;;;;;;5110284;28;20043;-64
2022/08/02 08:32:09;;;;;;;4.28;1.30;;;22.30;99.90;;;;;;5097604;28;20032;-64
2022/08/02 08:34:35;;;;;;;5.85;1.83;;;22.40;99.90;;;;;;5077575;28;20704;-63
2022/08/02 08:37:02;;;;;;;5.38;1.38;;;22.50;99.90;;;;;;5078032;28;20040;-66
2022/08/02 08:39:28;;;;;;;5.53;1.42;;;22.70;99.90;;;;;;5073228;28;20048;-63
2022/08/02 08:41:54;;;;;;;3.03;1.30;;;22.90;99.90;;;;;;5090884;28;20047;-63
2022/08/02 08:44:20;;;;;;;6.35;1.02;;;23.00;99.90;;;;;;5092508;28;20536;-65
2022/08/02 08:46:48;;;;;;;4.88;1.35;;;23.20;99.90;;;;;;5075119;28;20055;-63
2022/08/02 08:49:24;;;;;;;5.38;1.75;;;23.40;99.90;;;;;;5092613;28;20079;-66
2022/08/02 08:51:53;;;;;;;7.63;1.60;;;23.60;99.90;;;;;;5072830;28;20043;-65
2022/08/02 08:54:24;;;;;;;4.85;1.90;;;23.60;99.90;;;;;;5073705;28;20039;-64
2022/08/02 08:56:50;;;;;;;4.15;1.65;;;23.60;99.50;;;;;;5068863;28;20048;-64
2022/08/02 08:59:16;;;;;;;4.30;1.60;;;23.70;99.90;;;;;;5080424;28;20036;-65
2022/08/02 09:01:45;;;;;;;3.83;1.52;;;23.90;99.90;;;;;;5072361;28;20075;-63
2022/08/02 09:04:10;;;;;;;5.00;1.75;;;24.00;99.90;;;;;;5071843;28;20048;-65
2022/08/02 09:06:38;;;;;;;5.60;1.80;;;24.30;99.70;;;;;;5090838;28;20157;-65
2022/08/02 09:09:04;;;;;;;4.20;1.63;;;24.40;99.30;;;;;;5073713;28;20048;-66
2022/08/02 09:11:30;;;;;;;4.05;1.75;;;24.60;99.00;;;;;;5071889;28;20505;-63
2022/08/02 09:13:58;;;;;;;4.45;1.77;;;24.70;99.20;;;;;;5090117;28;20468;-67
2022/08/02 09:16:42;;;;;;;5.78;2.00;;;24.80;98.70;;;;;;5090195;28;20498;-64
2022/08/02 09:19:22;;;;;;;4.80;1.90;;;25.00;99.10;;;;;;5073895;28;20051;-62
2022/08/02 09:21:50;;;;;;;3.03;1.60;;;25.10;99.00;;;;;;5074240;28;20089;-65
2022/08/02 09:24:17;;;;;;;4.15;1.90;;;25.30;98.90;;;;;;5090059;28;20048;-66
2022/08/02 09:26:43;;;;;;;3.67;2.05;;;25.30;97.90;;;;;;5089939;28;20077;-64
2022/08/02 09:29:09;;;;;;;5.30;2.17;;;25.30;97.90;;;;;;5087621;28;20056;-66
2022/08/02 09:31:35;;;;;;;4.18;1.88;;;25.30;97.70;;;;;;5090896;28;20555;-64
2022/08/02 09:34:01;;;;;;;5.22;1.85;;;25.20;98.20;;;;;;5074243;28;20087;-65
2022/08/02 09:36:39;;;;;;;5.53;2.00;;;25.30;98.60;;;;;;5091861;28;20062;-64
2022/08/02 09:39:16;;;;;;;4.43;2.13;;;25.50;99.00;;;;;;5072009;28;20135;-64
2022/08/02 09:41:44;;;;;;;4.07;2.20;;;25.60;98.60;;;;;;5074164;28;20044;-63
2022/08/02 09:44:15;;;;;;;4.32;2.00;;;25.80;98.80;;;;;;5092208;28;20093;-63
2022/08/02 09:46:44;;;;;;;4.27;2.10;;;25.90;98.50;;;;;;5084512;28;20041;-64
2022/08/02 09:49:11;;;;;;;5.22;2.40;;;25.80;98.30;;;;;;5091849;28;20501;-63
2022/08/02 09:51:45;;;;;;;4.57;2.10;;;25.70;98.10;;;;;;5091220;28;20036;-64
2022/08/02 09:54:19;;;;;;;5.45;2.45;;;25.40;98.10;;;;;;5085943;28;20044;-64
2022/08/02 09:56:50;;;;;;;4.22;1.90;;;25.40;98.30;;;;;;5073522;28;20028;-65
2022/08/02 09:59:17;;;;;;;6.22;2.55;;;25.20;98.50;;;;;;5072113;28;20050;-65
2022/08/02 10:01:45;;;;;;;4.40;2.10;;;25.20;98.80;;;;;;5091654;28;20043;-67
2022/08/02 10:04:13;;;;;;;5.85;2.28;;;25.20;99.00;;;;;;5092082;28;20494;-67
2022/08/02 10:06:41;;;;;;;4.40;2.40;;;25.30;99.20;;;;;;5091535;28;20037;-62
2022/08/02 10:09:08;;;;;;;5.00;2.13;;;25.40;98.90;;;;;;5090409;28;20040;-64
2022/08/02 10:11:34;;;;;;;2.97;1.95;;;25.50;99.10;;;;;;5072329;28;20036;-63
2022/08/02 10:14:04;;;;;;;5.57;1.98;;;25.60;99.20;;;;;;5091817;28;20085;-65
2022/08/02 10:16:31;;;;;;;4.88;2.20;;;25.80;98.80;;;;;;5073863;28;20538;-66
2022/08/02 10:18:59;;;;;;;3.47;2.20;;;25.90;99.10;;;;;;5094210;28;20075;-64
2022/08/02 10:21:46;;;;;;;4.70;2.13;;;26.10;99.00;;;;;;5071602;28;20044;-65
2022/08/02 10:24:21;;;;;;;5.88;2.00;;;26.10;98.30;;;;;;5067313;28;20177;-67
2022/08/02 10:26:48;;;;;;;2.83;2.05;;;26.30;98.50;;;;;;5073098;28;20050;-66
2022/08/02 10:29:19;;;;;;;4.63;2.15;;;26.60;98.60;;;;;;5091336;28;20052;-66
2022/08/02 10:32:03;;;;;;;4.47;2.10;;;26.60;98.60;;;;;;5088641;28;20081;-67
2022/08/02 10:34:46;;;;;;;6.05;2.50;;;26.70;98.60;;;;;;5091062;28;20032;-64
2022/08/02 10:37:13;;;;;;;4.80;2.67;;;26.80;98.20;;;;;;5071380;28;20044;-65
2022/08/02 10:39:43;;;;;;;5.93;2.80;;;26.60;97.80;;;;;;5090901;28;20395;-66
2022/08/02 10:42:09;;;;;;;3.65;2.10;;;26.60;97.70;;;;;;5072051;28;20062;-65
2022/08/02 10:44:36;;;;;;;3.20;2.08;;;26.80;97.90;;;;;;5091189;28;20047;-67
2022/08/02 10:47:18;;;;;;;3.88;2.30;;;26.70;97.80;;;;;;5084421;28;20071;-65
2022/08/02 10:49:50;;;;;;;3.90;2.58;;;26.80;97.90;;;;;;5082896;28;20051;-65
2022/08/02 10:52:16;;;;;;;2.72;2.20;;;26.80;97.60;;;;;;5094019;28;20040;-65
2022/08/02 10:54:48;;;;;;;4.63;2.60;;;26.70;98.20;;;;;;5069422;28;20040;-66
2022/08/02 10:57:15;;;;;;;;;;;26.80;97.50;;;;;;5086541;28;20553;-64
2022/08/02 10:59:41;;;;;;;3.58;1.45;;;27.00;97.30;;;;;;5069859;28;19951;-63
2022/08/02 11:02:07;;;;;;;2.55;1.33;;;27.20;97.00;;;;;;5068779;28;20085;-63
2022/08/02 11:04:38;;;;;;;5.30;1.70;;;27.10;96.00;;;;;;5087382;28;20486;-65
2022/08/02 11:07:29;;;;;;;2.33;1.40;;;27.00;95.90;;;;;;5096923;28;20511;-64
2022/08/02 11:09:55;;;;;;;7.65;1.60;;;26.90;95.60;;;;;;5088134;28;20048;-64
2022/08/02 11:12:21;;;;;;;4.35;2.10;;;26.50;95.40;;;;;;5096417;28;20039;-65
2022/08/02 11:15:04;;;;;;;6.03;2.00;;;26.30;96.00;;;;;;5089623;28;20032;-64
2022/08/02 11:17:51;;;;;;;4.32;1.90;;;26.10;96.40;;;;;;5088075;28;20040;-65
2022/08/02 11:20:18;;;;;;;3.42;2.30;;;26.00;96.70;;;;;;5101173;28;20088;-68
2022/08/02 11:22:45;;;;;;;6.90;2.58;;;25.90;97.20;;;;;;5106975;28;20036;-64
2022/08/02 11:25:22;;;;;;;4.15;2.50;;;25.90;97.20;;;;;;5086109;28;20486;-65
2022/08/02 11:28:07;;;;;;;5.43;3.00;;;25.90;97.90;;;;;;5096556;28;20509;-64
2022/08/02 11:30:33;;;;;;;7.78;2.47;;;26.00;97.60;;;;;;5076216;28;20043;-64
2022/08/02 11:33:00;;;;;;;4.40;2.97;;;26.00;98.20;;;;;;5071860;28;20040;-66
2022/08/02 11:35:33;;;;;;;3.78;2.95;;;26.10;98.20;;;;;;5089395;28;20093;-64
2022/08/02 11:38:12;;;;;;;5.13;3.25;;;26.00;97.50;;;;;;5090304;28;20038;-66
2022/08/02 11:40:38;;;;;;;7.13;3.00;;;25.90;97.70;;;;;;5090046;28;20116;-66
2022/08/02 11:43:14;;;;;;;5.00;2.92;;;26.00;97.90;;;;;;5072081;28;20163;-65
2022/08/02 11:45:39;;;;;;;3.15;2.75;;;26.10;97.90;;;;;;5070901;28;20058;-68
2022/08/02 11:48:05;;;;;;;4.65;3.60;;;26.30;98.40;;;;;;5055429;28;20119;-67
2022/08/02 11:50:31;;;;;;;4.13;2.70;;;26.40;98.20;;;;;;5071953;28;20487;-68
2022/08/02 11:52:56;;;;;;;5.45;4.20;;;26.30;98.00;;;;;;5071864;28;20133;-67
2022/08/02 11:55:29;;;;;;;5.68;3.33;;;26.30;98.10;;;;;;5088779;28;20028;-69
2022/08/02 11:57:59;;;;;;;4.65;2.90;;;26.30;98.00;;;;;;5054916;28;20044;-65
2022/08/02 12:00:25;;;;;;;7.10;4.00;;;26.20;98.50;;;;;;5071496;28;20048;-69
2022/08/02 12:02:51;;;;;;;5.63;3.28;;;26.00;98.20;;;;;;5083322;28;20417;-69
2022/08/02 12:05:19;;;;;;;6.70;2.70;;;25.90;98.10;;;;;;5089216;28;20036;-67
2022/08/02 12:07:45;;;;;;;6.13;1.90;;;26.10;99.00;;;;;;5074581;28;20054;-66
2022/08/02 12:10:13;;;;;;;2.75;1.63;;;26.00;98.20;;;;;;5091947;28;20463;-64
2022/08/02 12:12:58;;;;;;;2.65;2.03;;;26.10;97.80;;;;;;5091580;28;20043;-65
2022/08/02 12:15:36;;;;;;;3.15;1.75;;;26.10;96.70;;;;;;5075463;28;20040;-65
2022/08/02 12:20:51;;;;;;;2.50;1.77;;;25.80;97.10;;;;;;5093950;28;20059;-64
2022/08/02 12:23:17;;;;;;;4.97;2.15;;;25.80;97.40;;;;;;5092307;28;20032;-65
2022/08/02 12:25:43;;;;;;;3.30;2.20;;;25.80;97.60;;;;;;5075505;28;20119;-64
2022/08/02 12:28:24;;;;;;;3.50;2.13;;;25.80;97.90;;;;;;5092202;28;20164;-65
2022/08/02 12:30:52;;;;;;;3.53;2.07;;;26.00;98.40;;;;;;5095163;28;20124;-65
2022/08/02 12:33:19;;;;;;;5.95;2.05;;;25.90;98.10;;;;;;5096679;28;20115;-63
2022/08/02 12:35:45;;;;;;;3.28;2.15;;;25.90;98.60;;;;;;5092349;28;20173;-66
2022/08/02 12:38:11;;;;;;;3.58;2.55;;;25.80;98.70;;;;;;5089844;28;20115;-65
2022/08/02 12:40:37;;;;;;;4.43;2.80;;;25.70;98.50;;;;;;5092895;28;20115;-70
2022/08/02 12:43:05;;;;;;;6.35;2.67;;;25.60;98.50;;;;;;5080340;28;20119;-64
2022/08/02 12:45:52;;;;;;;4.43;2.85;;;25.30;98.90;;;;;;5094532;28;20101;-66
2022/08/02 12:48:35;;;;;;;3.35;2.60;;;25.20;99.10;;;;;;5108047;28;20036;-65
2022/08/02 12:51:27;;;;;;;6.70;2.40;;;25.20;99.30;;;;;;5093232;28;20032;-67
2022/08/02 12:53:56;;;;;;;2.60;2.30;;;25.20;99.30;;;;;;5093694;28;20122;-65
2022/08/02 12:56:31;;;;;;;5.65;2.78;;;25.10;99.10;;;;;;5092750;28;20032;-64
2022/08/02 12:58:57;;;;;;;4.93;3.05;;;25.10;99.70;;;;;;5073801;28;20495;-67
2022/08/02 13:01:24;;;;;;;2.90;2.40;;;25.00;99.60;;;;;;5091566;28;20038;-66
2022/08/02 13:03:51;;;;;;;4.25;2.70;;;25.00;99.90;;;;;;5073312;28;20047;-68